Time;durP1;ratioP1;P1;durP2;ratioP2;P2;SDS_P1;SDS_P2;PMS_P1;PMS_P2;Temp;Humidity;BMP_temperature;BMP_pressure;BME280_temperature;BME280_humidity;BME280_pressure;Samples;Min_cycle;Max_cycle;Signal;HPM_P1;HPM_P2
2024/01/07 00:03:06;;;;;;;22.70;13.30;;;;;;;;;;103856;1288;545597;-72
2024/01/07 00:06:44;;;;;;;24.30;13.10;;;;;;;;;;103856;1289;544952;-71
2024/01/07 00:10:22;;;;;;;21.20;12.50;;;;;;;;;;103903;1292;545041;-72
2024/01/07 00:13:59;;;;;;;20.60;11.80;;;;;;;;;;106014;1288;545128;-72
2024/01/07 00:17:39;;;;;;;17.80;10.80;;;;;;;;;;103956;1289;548793;-71
2024/01/07 00:21:14;;;;;;;18.00;10.40;;;;;;;;;;104074;1289;545813;-71
2024/01/07 00:24:52;;;;;;;15.50;9.40;;;;;;;;;;103671;1291;544954;-72
2024/01/07 00:28:29;;;;;;;15.80;9.40;;;;;;;;;;103689;1290;546262;-71
2024/01/07 00:32:13;;;;;;;15.40;8.80;;;;;;;;;;103625;1290;546778;-71
2024/01/07 00:35:44;;;;;;;17.70;9.80;;;;;;;;;;103918;1288;544715;-71
2024/01/07 00:39:21;;;;;;;17.30;10.10;;;;;;;;;;103673;1295;545658;-71
2024/01/07 00:42:59;;;;;;;18.80;10.10;;;;;;;;;;103780;1289;545222;-72
2024/01/07 00:46:37;;;;;;;16.70;9.50;;;;;;;;;;103725;1293;545973;-73
2024/01/07 00:50:14;;;;;;;18.60;10.70;;;;;;;;;;103764;1292;545924;-70
2024/01/07 00:53:51;;;;;;;26.90;13.00;;;;;;;;;;103717;1292;545400;-71
2024/01/07 00:57:29;;;;;;;21.20;11.30;;;;;;;;;;103761;1292;544830;-72
2024/01/07 01:01:06;;;;;;;19.10;10.70;;;;;;;;;;103712;1289;545243;-72
2024/01/07 01:04:43;;;;;;;17.30;10.60;;;;;;;;;;103867;1288;544815;-72
2024/01/07 01:08:21;;;;;;;18.60;10.50;;;;;;;;;;103681;1289;544836;-71
2024/01/07 01:11:58;;;;;;;19.90;12.00;;;;;;;;;;103789;1289;544958;-73
2024/01/07 01:15:36;;;;;;;18.10;11.00;;;;;;;;;;103842;1289;545397;-72
2024/01/07 01:19:13;;;;;;;18.20;10.60;;;;;;;;;;103819;1289;544724;-73
2024/01/07 01:22:51;;;;;;;20.10;11.50;;;;;;;;;;103848;1289;545151;-72
2024/01/07 01:26:28;;;;;;;18.50;10.30;;;;;;;;;;103782;1303;544770;-73
2024/01/07 01:30:06;;;;;;;18.00;10.80;;;;;;;;;;103817;1290;545714;-73
2024/01/07 01:33:43;;;;;;;22.50;13.30;;;;;;;;;;103616;1291;545049;-72
2024/01/07 01:37:21;;;;;;;18.60;10.70;;;;;;;;;;104226;1285;545016;-74
2024/01/07 01:40:57;;;;;;;17.10;10.50;;;;;;;;;;103637;1292;544914;-71
2024/01/07 01:44:36;;;;;;;19.10;10.70;;;;;;;;;;103789;1291;545619;-71
2024/01/07 01:48:13;;;;;;;20.10;11.50;;;;;;;;;;103905;1303;545030;-72
2024/01/07 01:51:52;;;;;;;22.00;12.00;;;;;;;;;;103715;1296;545691;-72
2024/01/07 01:55:28;;;;;;;18.20;11.10;;;;;;;;;;103384;1294;545878;-72
2024/01/07 01:59:06;;;;;;;20.30;12.30;;;;;;;;;;103705;1295;544963;-72
2024/01/07 02:02:42;;;;;;;21.30;12.60;;;;;;;;;;103675;1291;544969;-72
2024/01/07 02:06:21;;;;;;;18.90;12.70;;;;;;;;;;104104;1287;545054;-72
2024/01/07 02:09:59;;;;;;;19.30;12.70;;;;;;;;;;104116;1286;544961;-75
2024/01/07 02:13:35;;;;;;;18.50;11.80;;;;;;;;;;103579;1291;545163;-71
2024/01/07 02:17:12;;;;;;;18.40;11.50;;;;;;;;;;104297;1285;544832;-72
2024/01/07 02:20:51;;;;;;;18.60;11.20;;;;;;;;;;103757;1292;545039;-72
2024/01/07 02:24:51;;;;;;;18.10;11.90;;;;;;;;;;103462;1298;545390;-72
2024/01/07 02:28:06;;;;;;;16.00;9.80;;;;;;;;;;103673;1296;544860;-72
2024/01/07 02:31:43;;;;;;;17.50;10.30;;;;;;;;;;103819;1289;545014;-72
2024/01/07 02:35:20;;;;;;;17.50;9.90;;;;;;;;;;103656;1290;545639;-72
2024/01/07 02:38:57;;;;;;;17.60;10.40;;;;;;;;;;103928;1289;545058;-72
2024/01/07 02:42:32;;;;;;;18.90;12.20;;;;;;;;;;103839;1289;545020;-72
2024/01/07 02:46:14;;;;;;;18.40;10.90;;;;;;;;;;103782;1289;544774;-73
2024/01/07 02:49:56;;;;;;;17.20;10.30;;;;;;;;;;103542;1291;548035;-72
2024/01/07 02:53:33;;;;;;;16.20;10.10;;;;;;;;;;103502;1298;549323;-72
2024/01/07 02:57:01;;;;;;;18.60;11.60;;;;;;;;;;103566;1295;545603;-71
2024/01/07 03:00:42;;;;;;;17.90;10.30;;;;;;;;;;103761;1291;544886;-73
2024/01/07 03:04:20;;;;;;;17.60;10.00;;;;;;;;;;103828;1289;544761;-73
2024/01/07 03:07:59;;;;;;;16.20;10.10;;;;;;;;;;103714;1292;546067;-73
2024/01/07 03:11:38;;;;;;;19.00;12.10;;;;;;;;;;103738;1294;544944;-73
2024/01/07 03:15:12;;;;;;;18.70;11.10;;;;;;;;;;103616;1291;545008;-73
2024/01/07 03:18:50;;;;;;;19.00;11.10;;;;;;;;;;104083;1292;544759;-72
2024/01/07 03:22:27;;;;;;;20.20;11.50;;;;;;;;;;103589;1292;545026;-71
2024/01/07 03:26:04;;;;;;;23.00;13.90;;;;;;;;;;103699;1291;545061;-73
2024/01/07 03:29:42;;;;;;;22.70;14.00;;;;;;;;;;103781;1292;545576;-72
2024/01/07 03:33:19;;;;;;;19.90;12.60;;;;;;;;;;103758;1289;545922;-73
2024/01/07 03:36:57;;;;;;;19.30;11.10;;;;;;;;;;103697;1292;546145;-74
2024/01/07 03:40:35;;;;;;;25.90;16.10;;;;;;;;;;103676;1291;544907;-73
2024/01/07 03:44:12;;;;;;;21.10;13.40;;;;;;;;;;103645;1292;544856;-73
2024/01/07 03:47:50;;;;;;;19.90;11.50;;;;;;;;;;103343;1298;545488;-73
2024/01/07 03:51:27;;;;;;;19.70;11.70;;;;;;;;;;103748;1289;545731;-71
2024/01/07 03:55:05;;;;;;;20.60;12.30;;;;;;;;;;103457;1293;546186;-73
2024/01/07 03:58:42;;;;;;;22.20;12.70;;;;;;;;;;103651;1295;545004;-73
2024/01/07 04:02:20;;;;;;;19.90;11.90;;;;;;;;;;103679;1291;545053;-72
2024/01/07 04:05:57;;;;;;;21.40;12.70;;;;;;;;;;103663;1291;544941;-72
2024/01/07 04:09:42;;;;;;;18.00;11.30;;;;;;;;;;103478;1291;547912;-72
2024/01/07 04:13:12;;;;;;;22.50;13.30;;;;;;;;;;103667;1289;545282;-73
2024/01/07 04:16:49;;;;;;;18.90;12.10;;;;;;;;;;103881;1292;546031;-73
2024/01/07 04:20:27;;;;;;;22.00;13.00;;;;;;;;;;103732;1295;544942;-73
2024/01/07 04:24:04;;;;;;;23.20;13.70;;;;;;;;;;103773;1296;544945;-73
2024/01/07 04:27:41;;;;;;;19.00;11.70;;;;;;;;;;103741;1301;544897;-72
2024/01/07 04:31:19;;;;;;;21.40;13.00;;;;;;;;;;103783;1295;544982;-73
2024/01/07 04:34:59;;;;;;;22.20;13.30;;;;;;;;;;104287;1285;544750;-73
2024/01/07 04:38:34;;;;;;;20.60;12.50;;;;;;;;;;103748;1292;544915;-72
2024/01/07 04:42:11;;;;;;;17.10;11.90;;;;;;;;;;103595;1291;545509;-73
2024/01/07 04:45:49;;;;;;;16.00;10.80;;;;;;;;;;103789;1289;544807;-72
2024/01/07 04:49:26;;;;;;;17.40;11.20;;;;;;;;;;104188;1289;544756;-72
2024/01/07 04:53:04;;;;;;;16.00;10.60;;;;;;;;;;103776;1289;544836;-72
2024/01/07 04:56:41;;;;;;;15.80;10.20;;;;;;;;;;103616;1291;545652;-73
2024/01/07 05:00:18;;;;;;;15.90;10.30;;;;;;;;;;103793;1289;544871;-73
2024/01/07 05:03:56;;;;;;;19.80;12.40;;;;;;;;;;103602;1291;545406;-73
2024/01/07 05:07:33;;;;;;;14.30;9.70;;;;;;;;;;103772;1292;544964;-72
2024/01/07 05:11:11;;;;;;;13.90;8.80;;;;;;;;;;103768;1292;544914;-73
2024/01/07 05:14:49;;;;;;;14.20;9.50;;;;;;;;;;103726;1291;544897;-73
2024/01/07 05:18:26;;;;;;;16.40;10.60;;;;;;;;;;103707;1292;545113;-72
2024/01/07 05:22:04;;;;;;;13.60;9.30;;;;;;;;;;103792;1292;545052;-72
2024/01/07 05:25:44;;;;;;;14.30;9.20;;;;;;;;;;103704;1289;544966;-71
2024/01/07 05:29:19;;;;;;;14.30;10.00;;;;;;;;;;103784;1292;545504;-73
2024/01/07 05:32:56;;;;;;;14.70;10.40;;;;;;;;;;103646;1291;544763;-75
2024/01/07 05:36:33;;;;;;;15.00;9.90;;;;;;;;;;103713;1292;544873;-72
2024/01/07 05:40:10;;;;;;;15.00;9.50;;;;;;;;;;103735;1295;545492;-72
2024/01/07 05:43:48;;;;;;;30.20;15.40;;;;;;;;;;103713;1291;545579;-72
2024/01/07 05:47:25;;;;;;;23.40;13.80;;;;;;;;;;104469;1283;545381;-73
2024/01/07 05:51:03;;;;;;;39.30;26.90;;;;;;;;;;103714;1291;545347;-72
2024/01/07 05:54:40;;;;;;;122.70;75.40;;;;;;;;;;103705;1292;545053;-72
2024/01/07 05:58:17;;;;;;;25.60;16.40;;;;;;;;;;103764;1289;545585;-72
2024/01/07 06:01:59;;;;;;;39.60;25.20;;;;;;;;;;103586;1292;545581;-74
2024/01/07 06:05:33;;;;;;;22.10;14.50;;;;;;;;;;103722;1294;545361;-73
2024/01/07 06:09:10;;;;;;;84.80;45.70;;;;;;;;;;103700;1294;544915;-73
2024/01/07 06:12:48;;;;;;;24.00;14.40;;;;;;;;;;103780;1290;544931;-72
2024/01/07 06:16:25;;;;;;;99.40;54.80;;;;;;;;;;103700;1292;545406;-73
2024/01/07 06:20:03;;;;;;;44.00;30.10;;;;;;;;;;103748;1289;544823;-73
2024/01/07 06:23:40;;;;;;;41.10;29.40;;;;;;;;;;103778;1289;544890;-73
2024/01/07 06:27:18;;;;;;;75.00;56.20;;;;;;;;;;103717;1289;545357;-72
2024/01/07 06:31:02;;;;;;;31.20;24.20;;;;;;;;;;103570;1290;547852;-72
2024/01/07 06:34:52;;;;;;;30.20;21.60;;;;;;;;;;103587;1292;547983;-72
2024/01/07 06:38:10;;;;;;;66.60;59.70;;;;;;;;;;103737;1292;544886;-72
2024/01/07 06:41:48;;;;;;;25.00;21.90;;;;;;;;;;103693;1289;544804;-72
2024/01/07 06:45:25;;;;;;;19.50;12.40;;;;;;;;;;103904;1292;544927;-72
2024/01/07 06:49:03;;;;;;;18.10;13.00;;;;;;;;;;103768;1292;544987;-73
2024/01/07 06:52:40;;;;;;;23.60;16.10;;;;;;;;;;103745;1291;544726;-72
2024/01/07 06:56:18;;;;;;;17.50;11.00;;;;;;;;;;103607;1292;544783;-72
2024/01/07 06:59:55;;;;;;;18.50;14.20;;;;;;;;;;103805;1292;544759;-72
2024/01/07 07:03:32;;;;;;;16.60;14.30;;;;;;;;;;103709;1289;545624;-72
2024/01/07 07:07:10;;;;;;;15.70;12.80;;;;;;;;;;103693;1291;545373;-72
2024/01/07 07:10:44;;;;;;;16.10;11.80;;;;;;;;;;103727;1292;545732;-73
2024/01/07 07:14:25;;;;;;;14.20;11.00;;;;;;;;;;103721;1289;544987;-72
2024/01/07 07:18:03;;;;;;;36.60;27.40;;;;;;;;;;103811;1289;545646;-72
2024/01/07 07:21:40;;;;;;;56.20;34.20;;;;;;;;;;103798;1290;545414;-73
2024/01/07 07:25:18;;;;;;;40.40;26.60;;;;;;;;;;103597;1295;545860;-72
2024/01/07 07:28:54;;;;;;;30.80;24.90;;;;;;;;;;103966;1289;545096;-71
2024/01/07 07:32:32;;;;;;;20.80;15.30;;;;;;;;;;103833;1290;545072;-72
2024/01/07 07:36:09;;;;;;;22.60;15.30;;;;;;;;;;103809;1289;544599;-71
2024/01/07 07:39:47;;;;;;;15.40;12.90;;;;;;;;;;103668;1289;545528;-72
2024/01/07 07:43:25;;;;;;;12.80;9.60;;;;;;;;;;103657;1294;544811;-72
2024/01/07 07:47:02;;;;;;;14.80;12.20;;;;;;;;;;103764;1294;545812;-71
2024/01/07 07:50:40;;;;;;;15.00;9.80;;;;;;;;;;103718;1291;545604;-72
2024/01/07 07:54:13;;;;;;;21.50;13.60;;;;;;;;;;103620;1295;545824;-71
2024/01/07 07:57:54;;;;;;;16.70;12.40;;;;;;;;;;103782;1289;544984;-71
2024/01/07 08:01:31;;;;;;;14.20;10.30;;;;;;;;;;103689;1290;545387;-72
2024/01/07 08:05:09;;;;;;;16.40;12.60;;;;;;;;;;103676;1295;544944;-71
2024/01/07 08:08:47;;;;;;;15.40;11.50;;;;;;;;;;103694;1291;545138;-72
2024/01/07 08:12:24;;;;;;;17.20;12.80;;;;;;;;;;103867;1292;544964;-71
2024/01/07 08:16:02;;;;;;;24.80;20.70;;;;;;;;;;103714;1289;545796;-73
2024/01/07 08:19:38;;;;;;;15.60;12.10;;;;;;;;;;103901;1289;544791;-71
2024/01/07 08:23:16;;;;;;;30.70;26.10;;;;;;;;;;103707;1295;544926;-72
2024/01/07 08:26:54;;;;;;;33.60;16.90;;;;;;;;;;103745;1292;544780;-72
2024/01/07 08:30:31;;;;;;;19.90;14.80;;;;;;;;;;103734;1288;545175;-72
2024/01/07 08:34:05;;;;;;;15.60;10.00;;;;;;;;;;103745;1289;545087;-71
2024/01/07 08:37:46;;;;;;;26.30;16.50;;;;;;;;;;103341;1294;545633;-73
2024/01/07 08:41:23;;;;;;;18.00;13.50;;;;;;;;;;103768;1294;544887;-72
2024/01/07 08:45:04;;;;;;;14.70;11.10;;;;;;;;;;103722;1295;544963;-72
2024/01/07 08:48:38;;;;;;;13.20;9.90;;;;;;;;;;103732;1289;545042;-71
2024/01/07 08:52:16;;;;;;;20.60;16.20;;;;;;;;;;103580;1292;544971;-72
2024/01/07 08:55:53;;;;;;;12.40;9.60;;;;;;;;;;103713;1292;544942;-72
2024/01/07 08:59:31;;;;;;;11.90;9.10;;;;;;;;;;103694;1291;546619;-71
2024/01/07 09:03:08;;;;;;;177.00;94.50;;;;;;;;;;103685;1292;545366;-72
2024/01/07 09:06:46;;;;;;;48.70;39.30;;;;;;;;;;103765;1292;544814;-71
2024/01/07 09:10:21;;;;;;;53.50;32.10;;;;;;;;;;103786;1288;545306;-72
2024/01/07 09:14:01;;;;;;;138.40;51.30;;;;;;;;;;103768;1289;544826;-72
2024/01/07 09:17:36;;;;;;;62.20;33.10;;;;;;;;;;103818;1295;545018;-71
2024/01/07 09:21:16;;;;;;;135.60;60.10;;;;;;;;;;103842;1289;544802;-71
2024/01/07 09:24:53;;;;;;;112.80;57.60;;;;;;;;;;103708;1291;545724;-71
2024/01/07 09:28:31;;;;;;;38.70;25.20;;;;;;;;;;103682;1292;545187;-72
2024/01/07 09:32:08;;;;;;;59.80;34.10;;;;;;;;;;103853;1292;545395;-74
2024/01/07 09:35:46;;;;;;;54.20;32.80;;;;;;;;;;103814;1289;545046;-71
2024/01/07 09:39:22;;;;;;;102.40;57.10;;;;;;;;;;103717;1292;544974;-74
2024/01/07 09:43:01;;;;;;;97.10;53.30;;;;;;;;;;103779;1292;545319;-71
2024/01/07 09:46:45;;;;;;;131.40;58.10;;;;;;;;;;104034;1286;547769;-72
2024/01/07 09:50:16;;;;;;;94.80;39.40;;;;;;;;;;103754;1289;545077;-71
2024/01/07 09:53:57;;;;;;;278.90;131.10;;;;;;;;;;103740;1289;545360;-71
2024/01/07 09:57:30;;;;;;;197.50;91.30;;;;;;;;;;103776;1291;544743;-73
2024/01/07 10:01:08;;;;;;;166.70;83.20;;;;;;;;;;103964;1289;544744;-73
2024/01/07 10:04:47;;;;;;;131.30;70.10;;;;;;;;;;103701;1292;546286;-71
2024/01/07 10:08:22;;;;;;;49.50;25.70;;;;;;;;;;103960;1289;544997;-71
2024/01/07 10:12:00;;;;;;;34.60;18.70;;;;;;;;;;103958;1301;545685;-72
2024/01/07 10:15:37;;;;;;;22.90;11.90;;;;;;;;;;103808;1289;545625;-72
2024/01/07 10:19:22;;;;;;;21.00;10.00;;;;;;;;;;103775;1293;544968;-72
2024/01/07 10:22:52;;;;;;;30.10;15.10;;;;;;;;;;103367;1294;546292;-72
2024/01/07 10:26:30;;;;;;;21.70;11.20;;;;;;;;;;103824;1289;545469;-72
2024/01/07 10:30:08;;;;;;;33.70;17.00;;;;;;;;;;103724;1292;545847;-73
2024/01/07 10:33:45;;;;;;;78.20;40.80;;;;;;;;;;103972;1288;545226;-71
2024/01/07 10:37:19;;;;;;;53.50;26.10;;;;;;;;;;103679;1291;544843;-72
2024/01/07 10:41:01;;;;;;;52.40;28.70;;;;;;;;;;103665;1292;544934;-72
2024/01/07 10:44:43;;;;;;;22.60;13.10;;;;;;;;;;103515;1292;547990;-72
2024/01/07 10:48:23;;;;;;;18.70;11.40;;;;;;;;;;103742;1288;548052;-71
2024/01/07 10:52:05;;;;;;;18.50;10.20;;;;;;;;;;103870;1292;544921;-72
2024/01/07 10:55:33;;;;;;;20.70;13.40;;;;;;;;;;103721;1292;544957;-71
2024/01/07 10:59:08;;;;;;;16.60;9.70;;;;;;;;;;103682;1290;545397;-73
2024/01/07 11:02:46;;;;;;;15.30;9.20;;;;;;;;;;103792;1289;544975;-71
2024/01/07 11:06:22;;;;;;;23.50;13.20;;;;;;;;;;103772;1290;544708;-73
2024/01/07 11:10:00;;;;;;;25.00;14.60;;;;;;;;;;103680;1289;545436;-72
2024/01/07 11:13:39;;;;;;;18.80;9.90;;;;;;;;;;103524;1295;549225;-71
2024/01/07 11:17:35;;;;;;;16.20;10.60;;;;;;;;;;103577;1291;544933;-72
2024/01/07 11:20:53;;;;;;;21.60;14.70;;;;;;;;;;103691;1301;544619;-72
2024/01/07 11:24:40;;;;;;;36.20;28.00;;;;;;;;;;103789;1293;545121;-72
2024/01/07 11:28:06;;;;;;;59.30;44.30;;;;;;;;;;103786;1289;545007;-72
2024/01/07 11:31:47;;;;;;;22.00;15.10;;;;;;;;;;103717;1292;545581;-74
2024/01/07 11:35:47;;;;;;;24.50;16.80;;;;;;;;;;103543;1292;547810;-72
2024/01/07 11:39:02;;;;;;;14.70;9.50;;;;;;;;;;103538;1291;545370;-71
2024/01/07 11:42:37;;;;;;;21.80;14.40;;;;;;;;;;103890;1288;546081;-72
2024/01/07 11:46:11;;;;;;;14.70;8.60;;;;;;;;;;103748;1288;544970;-71
2024/01/07 11:49:53;;;;;;;16.60;11.60;;;;;;;;;;103675;1292;545081;-73
2024/01/07 11:53:26;;;;;;;22.20;13.10;;;;;;;;;;103795;1290;544732;-72
2024/01/07 11:57:07;;;;;;;24.90;20.70;;;;;;;;;;103753;1295;545423;-72
2024/01/07 12:00:44;;;;;;;24.50;18.30;;;;;;;;;;103829;1289;544813;-72
2024/01/07 12:04:21;;;;;;;32.30;19.90;;;;;;;;;;103771;1289;544983;-72
2024/01/07 12:08:05;;;;;;;65.70;31.10;;;;;;;;;;104025;1286;547953;-72
2024/01/07 12:11:37;;;;;;;49.50;31.60;;;;;;;;;;103796;1289;546487;-72
2024/01/07 12:15:14;;;;;;;26.50;20.60;;;;;;;;;;103705;1292;545527;-72
2024/01/07 12:18:51;;;;;;;18.10;13.10;;;;;;;;;;103729;1291;544861;-71
2024/01/07 12:22:29;;;;;;;37.30;24.90;;;;;;;;;;103778;1292;545148;-73
2024/01/07 12:26:10;;;;;;;32.10;23.30;;;;;;;;;;103807;1295;544858;-72
2024/01/07 12:29:44;;;;;;;26.40;18.60;;;;;;;;;;103750;1288;545500;-71
2024/01/07 12:33:21;;;;;;;20.00;14.90;;;;;;;;;;103756;1294;544954;-72
2024/01/07 12:36:59;;;;;;;16.60;12.70;;;;;;;;;;103786;1289;544769;-72
2024/01/07 12:40:36;;;;;;;19.20;13.50;;;;;;;;;;103832;1292;544973;-74
2024/01/07 12:44:14;;;;;;;32.60;22.30;;;;;;;;;;103822;1295;545018;-72
2024/01/07 12:47:51;;;;;;;19.60;12.90;;;;;;;;;;103578;1291;544832;-72
2024/01/07 12:51:29;;;;;;;16.50;9.90;;;;;;;;;;104111;1299;545060;-73
2024/01/07 12:55:06;;;;;;;32.50;19.70;;;;;;;;;;103678;1292;545036;-72
2024/01/07 12:58:44;;;;;;;47.30;29.20;;;;;;;;;;103625;1292;545115;-72
2024/01/07 13:02:21;;;;;;;34.20;22.90;;;;;;;;;;103591;1292;545262;-72
2024/01/07 13:05:59;;;;;;;30.30;19.70;;;;;;;;;;103729;1291;544856;-72
2024/01/07 13:09:36;;;;;;;33.00;23.10;;;;;;;;;;103846;1291;545160;-71
2024/01/07 13:13:13;;;;;;;20.40;14.00;;;;;;;;;;104089;1289;544767;-71
2024/01/07 13:16:51;;;;;;;42.00;27.40;;;;;;;;;;103789;1289;544889;-71
2024/01/07 13:20:28;;;;;;;26.40;18.50;;;;;;;;;;103807;1292;545181;-72
2024/01/07 13:24:05;;;;;;;47.60;31.50;;;;;;;;;;103751;1290;544791;-72
2024/01/07 13:28:03;;;;;;;94.60;60.50;;;;;;;;;;103663;1294;548149;-72
2024/01/07 13:31:20;;;;;;;43.80;29.30;;;;;;;;;;103802;1290;544881;-72
2024/01/07 13:34:58;;;;;;;53.30;33.10;;;;;;;;;;103734;1290;544780;-72
2024/01/07 13:38:38;;;;;;;24.00;16.40;;;;;;;;;;103749;1294;544849;-71
2024/01/07 13:42:13;;;;;;;39.30;21.30;;;;;;;;;;103906;1289;545506;-71
2024/01/07 13:45:51;;;;;;;35.90;20.50;;;;;;;;;;103370;1295;545593;-73
2024/01/07 13:49:28;;;;;;;35.50;20.50;;;;;;;;;;103629;1295;544829;-71
2024/01/07 13:53:04;;;;;;;21.50;13.60;;;;;;;;;;103747;1292;545904;-71
2024/01/07 13:56:50;;;;;;;29.80;17.20;;;;;;;;;;103521;1291;545335;-70
2024/01/07 14:00:21;;;;;;;52.30;32.80;;;;;;;;;;103710;1292;545116;-72
2024/01/07 14:03:58;;;;;;;88.60;54.10;;;;;;;;;;103760;1290;545180;-72
2024/01/07 14:07:35;;;;;;;144.10;76.00;;;;;;;;;;103701;1295;545336;-72
2024/01/07 14:11:13;;;;;;;121.20;76.90;;;;;;;;;;103819;1296;544806;-72
2024/01/07 14:14:50;;;;;;;34.10;26.50;;;;;;;;;;104204;1289;545198;-71
2024/01/07 14:18:28;;;;;;;41.60;28.10;;;;;;;;;;103877;1295;545774;-72
2024/01/07 14:22:05;;;;;;;50.60;32.20;;;;;;;;;;104072;1286;544777;-71
2024/01/07 14:25:43;;;;;;;24.50;17.50;;;;;;;;;;103655;1292;545005;-70
2024/01/07 14:29:20;;;;;;;21.10;14.70;;;;;;;;;;103821;1289;545504;-71
2024/01/07 14:33:03;;;;;;;82.80;47.80;;;;;;;;;;103629;1292;547831;-72
2024/01/07 14:36:34;;;;;;;58.00;37.80;;;;;;;;;;103764;1290;544896;-72
2024/01/07 14:40:09;;;;;;;43.30;25.80;;;;;;;;;;103884;1289;544824;-70
2024/01/07 14:43:50;;;;;;;32.20;19.80;;;;;;;;;;103799;1289;544927;-70
2024/01/07 14:47:28;;;;;;;49.00;29.20;;;;;;;;;;103701;1294;544967;-71
2024/01/07 14:51:05;;;;;;;27.30;17.00;;;;;;;;;;103736;1291;544763;-72
2024/01/07 14:54:43;;;;;;;34.60;21.10;;;;;;;;;;103744;1295;545186;-73
2024/01/07 14:58:21;;;;;;;30.80;19.50;;;;;;;;;;103732;1292;544929;-70
2024/01/07 15:01:57;;;;;;;44.20;28.30;;;;;;;;;;103850;1289;545013;-71
2024/01/07 15:05:34;;;;;;;28.10;18.80;;;;;;;;;;103831;1289;545763;-72
2024/01/07 15:09:13;;;;;;;22.00;14.80;;;;;;;;;;103637;1290;545516;-71
2024/01/07 15:12:50;;;;;;;62.00;34.20;;;;;;;;;;103875;1289;545890;-71
2024/01/07 15:16:27;;;;;;;22.30;16.90;;;;;;;;;;103650;1292;545952;-71
2024/01/07 15:20:06;;;;;;;27.80;21.30;;;;;;;;;;103717;1289;544967;-72
2024/01/07 15:23:43;;;;;;;23.30;16.60;;;;;;;;;;103416;1292;546408;-70
2024/01/07 15:27:19;;;;;;;23.70;14.80;;;;;;;;;;103931;1289;544785;-70
2024/01/07 15:30:57;;;;;;;18.90;12.10;;;;;;;;;;104033;1289;545037;-71
2024/01/07 15:34:30;;;;;;;21.20;14.10;;;;;;;;;;103820;1289;545887;-71
2024/01/07 15:38:18;;;;;;;21.80;13.80;;;;;;;;;;103363;1293;547801;-71
2024/01/07 15:41:49;;;;;;;33.70;20.40;;;;;;;;;;103799;1289;544969;-72
2024/01/07 15:45:32;;;;;;;43.00;26.00;;;;;;;;;;103489;1292;548229;-71
2024/01/07 15:49:04;;;;;;;42.40;28.80;;;;;;;;;;103709;1292;544999;-71
2024/01/07 15:53:01;;;;;;;31.10;21.90;;;;;;;;;;103655;1289;547839;-72
2024/01/07 15:56:19;;;;;;;32.70;21.40;;;;;;;;;;103643;1289;544983;-71
2024/01/07 16:00:03;;;;;;;26.40;17.80;;;;;;;;;;103510;1289;548190;-71
2024/01/07 16:03:35;;;;;;;30.50;21.90;;;;;;;;;;103753;1292;544756;-71
2024/01/07 16:07:12;;;;;;;56.70;31.80;;;;;;;;;;104369;1292;545186;-71
2024/01/07 16:10:55;;;;;;;48.60;30.20;;;;;;;;;;103551;1292;547964;-72
2024/01/07 16:14:27;;;;;;;27.90;18.80;;;;;;;;;;103451;1295;546039;-70
2024/01/07 16:18:03;;;;;;;30.20;20.30;;;;;;;;;;103833;1292;544788;-71
2024/01/07 16:21:47;;;;;;;78.50;36.30;;;;;;;;;;103552;1292;549252;-70
2024/01/07 16:25:18;;;;;;;30.40;19.30;;;;;;;;;;105630;1291;544823;-72
2024/01/07 16:28:56;;;;;;;33.00;23.80;;;;;;;;;;103579;1292;546522;-72
2024/01/07 16:32:34;;;;;;;29.60;20.10;;;;;;;;;;103961;1289;545024;-72
2024/01/07 16:36:11;;;;;;;74.80;41.30;;;;;;;;;;104393;1282;546039;-71
2024/01/07 16:39:48;;;;;;;110.90;54.10;;;;;;;;;;104430;1283;545097;-72
2024/01/07 16:43:23;;;;;;;136.40;70.90;;;;;;;;;;104103;1292;545616;-72
2024/01/07 16:47:06;;;;;;;81.60;50.40;;;;;;;;;;103638;1303;545069;-71
2024/01/07 16:50:41;;;;;;;34.70;21.60;;;;;;;;;;103772;1293;545623;-70
2024/01/07 16:54:18;;;;;;;29.70;18.90;;;;;;;;;;103871;1292;545406;-72
2024/01/07 16:57:56;;;;;;;25.50;16.00;;;;;;;;;;103848;1289;545971;-72
2024/01/07 17:01:33;;;;;;;37.30;23.70;;;;;;;;;;103718;1293;544870;-72
2024/01/07 17:05:11;;;;;;;40.60;24.50;;;;;;;;;;103785;1289;544910;-72
2024/01/07 17:08:48;;;;;;;66.70;37.70;;;;;;;;;;103995;1289;544925;-70
2024/01/07 17:12:22;;;;;;;38.30;24.20;;;;;;;;;;103891;1292;545703;-70
2024/01/07 17:16:03;;;;;;;36.00;24.70;;;;;;;;;;103774;1292;545042;-71
2024/01/07 17:19:37;;;;;;;39.00;26.50;;;;;;;;;;103877;1289;545044;-70
2024/01/07 17:23:21;;;;;;;30.70;20.90;;;;;;;;;;103987;1287;544921;-71
2024/01/07 17:26:52;;;;;;;34.60;21.90;;;;;;;;;;103782;1290;544788;-71
2024/01/07 17:30:33;;;;;;;39.00;25.00;;;;;;;;;;103829;1289;544942;-71
2024/01/07 17:34:16;;;;;;;82.60;41.60;;;;;;;;;;103593;1291;547828;-72
2024/01/07 17:37:48;;;;;;;109.40;49.80;;;;;;;;;;103814;1289;545043;-71
2024/01/07 17:41:27;;;;;;;117.80;52.70;;;;;;;;;;103890;1288;544817;-71
2024/01/07 17:45:04;;;;;;;49.20;25.30;;;;;;;;;;103678;1297;544979;-70
2024/01/07 17:48:40;;;;;;;55.10;24.00;;;;;;;;;;103805;1289;545698;-71
2024/01/07 17:52:18;;;;;;;84.60;38.60;;;;;;;;;;103700;1292;545049;-70
2024/01/07 17:55:57;;;;;;;31.10;17.80;;;;;;;;;;103786;1292;544928;-70
2024/01/07 17:59:34;;;;;;;40.00;22.50;;;;;;;;;;103792;1289;544916;-72
2024/01/07 18:03:12;;;;;;;33.40;18.70;;;;;;;;;;103693;1291;544989;-70
2024/01/07 18:06:48;;;;;;;25.30;14.70;;;;;;;;;;103654;1292;546061;-73
2024/01/07 18:10:25;;;;;;;34.70;18.70;;;;;;;;;;103907;1289;545578;-71
2024/01/07 18:14:03;;;;;;;35.50;18.20;;;;;;;;;;103797;1291;544996;-71
2024/01/07 18:17:42;;;;;;;38.60;18.90;;;;;;;;;;103687;1293;545040;-71
2024/01/07 18:21:18;;;;;;;47.10;22.90;;;;;;;;;;103743;1289;545944;-71
2024/01/07 18:25:00;;;;;;;51.20;26.90;;;;;;;;;;103751;1292;547972;-70
2024/01/07 18:28:32;;;;;;;44.30;23.10;;;;;;;;;;103623;1293;544766;-71
2024/01/07 18:32:11;;;;;;;39.20;19.20;;;;;;;;;;103700;1296;545459;-71
2024/01/07 18:35:47;;;;;;;36.00;19.10;;;;;;;;;;103796;1292;545016;-72
2024/01/07 18:39:24;;;;;;;41.60;23.10;;;;;;;;;;103766;1289;545035;-72
2024/01/07 18:43:05;;;;;;;30.50;16.20;;;;;;;;;;103770;1289;545279;-71
2024/01/07 18:46:47;;;;;;;43.20;22.00;;;;;;;;;;103214;1294;548192;-71
2024/01/07 18:50:19;;;;;;;42.00;21.70;;;;;;;;;;103757;1290;545212;-71
2024/01/07 18:53:55;;;;;;;43.00;21.30;;;;;;;;;;103701;1296;545498;-69
2024/01/07 18:57:33;;;;;;;44.00;21.90;;;;;;;;;;103652;1290;545745;-70
2024/01/07 19:01:10;;;;;;;77.20;40.40;;;;;;;;;;103645;1291;545191;-72
2024/01/07 19:04:47;;;;;;;70.50;34.20;;;;;;;;;;103677;1301;544809;-70
2024/01/07 19:08:25;;;;;;;87.10;43.20;;;;;;;;;;103707;1290;544856;-70
2024/01/07 19:12:03;;;;;;;76.30;42.70;;;;;;;;;;104313;1290;544883;-71
2024/01/07 19:15:40;;;;;;;65.70;37.70;;;;;;;;;;103831;1289;544719;-72
2024/01/07 19:19:17;;;;;;;49.40;24.10;;;;;;;;;;103814;1289;544835;-72
2024/01/07 19:22:55;;;;;;;34.10;20.30;;;;;;;;;;103695;1290;544901;-72
2024/01/07 19:26:32;;;;;;;34.40;19.20;;;;;;;;;;103814;1295;545045;-70
2024/01/07 19:30:10;;;;;;;28.30;16.10;;;;;;;;;;103632;1291;545198;-70
2024/01/07 19:33:46;;;;;;;27.50;16.80;;;;;;;;;;103749;1293;544818;-72
2024/01/07 19:37:24;;;;;;;28.50;15.80;;;;;;;;;;103893;1289;546055;-72
2024/01/07 19:41:02;;;;;;;24.60;14.40;;;;;;;;;;103818;1289;545921;-70
2024/01/07 19:44:40;;;;;;;28.80;17.80;;;;;;;;;;103587;1305;546534;-70
2024/01/07 19:48:16;;;;;;;29.20;15.90;;;;;;;;;;104609;1283;544747;-70
2024/01/07 19:51:54;;;;;;;32.00;17.20;;;;;;;;;;103630;1291;545886;-71
2024/01/07 19:55:27;;;;;;;30.70;17.90;;;;;;;;;;103799;1292;545000;-70
2024/01/07 19:59:09;;;;;;;42.90;24.80;;;;;;;;;;103679;1292;545246;-71
2024/01/07 20:02:48;;;;;;;41.10;21.70;;;;;;;;;;103813;1289;545600;-72
2024/01/07 20:06:24;;;;;;;47.30;25.30;;;;;;;;;;103798;1289;546210;-70
2024/01/07 20:10:01;;;;;;;43.40;22.60;;;;;;;;;;103993;1289;544808;-72
2024/01/07 20:13:35;;;;;;;39.60;20.00;;;;;;;;;;103846;1292;545041;-71
2024/01/07 20:17:16;;;;;;;29.90;16.10;;;;;;;;;;103849;1289;545050;-71
2024/01/07 20:20:54;;;;;;;47.40;25.40;;;;;;;;;;103510;1289;545647;-71
2024/01/07 20:24:31;;;;;;;24.30;13.80;;;;;;;;;;103863;1289;545873;-72
2024/01/07 20:28:09;;;;;;;22.70;14.00;;;;;;;;;;103934;1289;545591;-72